Terminal Aerodrome Forecast
Issued by NWS Pittsburgh, PA

Home | Current Version | Previous Version | Text Only | Print | Product List | Glossary On
Versions: 1 2 3 4 5 6 7 8 9 10 11 12 13 14 15 16 17 18 19 20 21 22 23 24 25 26 27 28 29 30 31 32 33 34 35
295
FTUS41 KPBZ 012057 AAA
TAFPIT
TAF AMD
KPIT 012057Z 0121/0224 22016G25KT P6SM BKN035
     FM012230 24018G25KT P6SM VCTS BKN040CB
      TEMPO 0123/0124 26020G38KT 3SM -TSRA BKN025CB
     FM020100 27018G33KT P6SM VCSH BKN025
     FM021700 28013KT P6SM BKN040=

USA.gov is the U.S. government's official web portal to all federal, state and local government web resources and services.